WetterOnline ( https://www.wetteronline.de )

Wetter aktuell Rugensee

Aktuelles Wetter: Boltenhagen (17m)

6-stündlich | Neueste Meldungen
Ortszeit Temperatur Wetter
Fr, 23.08. 20:00 21.8° C wolkig
Fr, 23.08. 14:00 25.6° C leicht bewölkt
Fr, 23.08. 8:00 14.6° C leicht bewölkt
Fr, 23.08. 2:00 14.9° C wolkenlos
Do, 22.08. 20:00 22.0° C wolkenlos
Do, 22.08. 14:00 25.1° C fast wolkenlos
Do, 22.08. 8:00 13.6° C leicht bewölkt
Do, 22.08. 2:00 12.1° C wolkenlos
Ortszeit Temperatur Wetter
Sa, 24.08. 0:00 17.6° C wolkig
Fr, 23.08. 23:50 17.6° C wolkig
Fr, 23.08. 23:40 16.6° C wolkig
Fr, 23.08. 23:30 18.0° C wolkig
Fr, 23.08. 23:20 18.0° C wolkig
Fr, 23.08. 23:10 17.8° C wolkig
Fr, 23.08. 23:00 18.5° C leicht bewölkt
Fr, 23.08. 22:30 18.8° C leicht bewölkt
Fr, 23.08. 22:00 19.4° C wolkenlos
Fr, 23.08. 21:30 19.4° C wolkenlos
Fr, 23.08. 21:00 19.4° C wolkenlos
Ortszeit Relative Feuchte Sichtweite
Fr, 23.08. 20:00 45% 35 km
Fr, 23.08. 14:00 40% 25 km
Fr, 23.08. 8:00 85% 17 km
Fr, 23.08. 2:00 83% 21 km
Do, 22.08. 20:00 47% 45 km
Do, 22.08. 14:00 34% 40 km
Do, 22.08. 8:00 84% 30 km
Do, 22.08. 2:00 89% 35 km
Ortszeit Relative Feuchte Sichtweite
Sa, 24.08. 0:00 78% 25 km
Fr, 23.08. 23:50 78% -
Fr, 23.08. 23:40 81% -
Fr, 23.08. 23:30 81% 25 km
Fr, 23.08. 23:20 81% -
Fr, 23.08. 23:10 79% -
Fr, 23.08. 23:00 79% 23 km
Fr, 23.08. 22:30 77% 24 km
Fr, 23.08. 22:00 74% 27 km
Fr, 23.08. 21:30 76% 21 km
Fr, 23.08. 21:00 76% 30 km
Ortszeit Niederschlagsmenge Niederschlagsart
Fr, 23.08. 20:00 0.0 l/m2 in 12 Std. -
Fr, 23.08. 14:00 0.0 l/m2 in 6 Std. -
Fr, 23.08. 8:00 0.0 l/m2 in 12 Std. -
Fr, 23.08. 2:00 0.0 l/m2 in 6 Std. -
Do, 22.08. 20:00 0.0 l/m2 in 12 Std. -
Do, 22.08. 14:00 0.0 l/m2 in 6 Std. -
Do, 22.08. 8:00 0.0 l/m2 in 12 Std. -
Do, 22.08. 2:00 0.0 l/m2 in 6 Std. -
Ortszeit Niederschlagsmenge Niederschlagsart
Sa, 24.08. 0:00 0.0 l/m2 in 1 Std. -
Fr, 23.08. 23:50 keine Meldung -
Fr, 23.08. 23:40 keine Meldung -
Fr, 23.08. 23:30 0.0 l/m2 in 1 Std. -
Fr, 23.08. 23:20 keine Meldung -
Fr, 23.08. 23:10 keine Meldung -
Fr, 23.08. 23:00 0.0 l/m2 in 1 Std. -
Fr, 23.08. 22:30 0.0 l/m2 in 1 Std. -
Fr, 23.08. 22:00 0.0 l/m2 in 1 Std. -
Fr, 23.08. 21:30 0.0 l/m2 in 1 Std. -
Fr, 23.08. 21:00 0.0 l/m2 in 1 Std. -
Ortszeit Stärke Spitze Richtung
km/h Bft. km/h Grad Sektor
Fr, 23.08. 20:00 13 3 26 300° NW
Fr, 23.08. 14:00 13 3 28 240° SW
Fr, 23.08. 8:00 11 2 14 230° SW
Fr, 23.08. 2:00 4 1 25 340° N
Do, 22.08. 20:00 7 2 40 250° W
Do, 22.08. 14:00 22 4 40 170° S
Do, 22.08. 8:00 9 2 15 180° S
Do, 22.08. 2:00 13 3 15 200° S
Ortszeit Stärke Spitze Richtung
km/h Bft. km/h Grad Sektor
Sa, 24.08. 0:00 4 1 11 120° SO
Fr, 23.08. 23:50 4 1 - 120° SO
Fr, 23.08. 23:40 7 2 - 110° O
Fr, 23.08. 23:30 6 1 7 100° O
Fr, 23.08. 23:20 6 1 - 100° O
Fr, 23.08. 23:10 4 1 - 90° O
Fr, 23.08. 23:00 4 1 11 70° O
Fr, 23.08. 22:30 4 1 11 60° NO
Fr, 23.08. 22:00 6 1 9 50° NO
Fr, 23.08. 21:30 6 1 7 70° O
Fr, 23.08. 21:00 6 1 17 40° NO
Ortszeit Untergrenze Bedeckung Gattung
total tief tief mittel hoch
Fr, 23.08. 20:00 8700 m 7/8 0/8 - - -
Fr, 23.08. 14:00 7500 m 6/8 0/8 - - -
Fr, 23.08. 8:00 10500 m 6/8 0/8 - - -
Fr, 23.08. 2:00 - 0/8 0/8 - - -
Do, 22.08. 20:00 - 0/8 0/8 - - -
Do, 22.08. 14:00 6900 m 1/8 1/8 - - -
Do, 22.08. 8:00 10500 m 3/8 0/8 - - -
Do, 22.08. 2:00 - 0/8 0/8 - - -
Ortszeit Bedeckungsgrad in Achtel und Wolkenuntergrenze
Sa, 24.08. 0:00 8(8700m) 8(10500m)
Fr, 23.08. 23:50 8(8700m) 8(10500m)
Fr, 23.08. 23:40 8(8700m) 8(9000m) 8(10500m)
Fr, 23.08. 23:30 7(9000m) 8(10500m) 8(10500m)
Fr, 23.08. 23:20 7(9000m) 8(10500m) 8(10500m)
Fr, 23.08. 23:10 7(9000m) 7(10500m) 7(12000m)
Fr, 23.08. 23:00 4(9000m) 5(10500m) 6(12000m)
Fr, 23.08. 22:30 5(10500m)
Fr, 23.08. 22:00 keine Wolken
Fr, 23.08. 21:30 keine Wolken
Fr, 23.08. 21:00 keine Wolken
Ortszeit Luftdruck NN (hPa) Tendenz (hPa in 3 Std.)
Fr, 23.08. 20:00 1025 - 0,2
Fr, 23.08. 14:00 1026 - 0,3
Fr, 23.08. 8:00 1026 + 0,5
Fr, 23.08. 2:00 1025 + 0,5
Do, 22.08. 20:00 1024 - 0,6
Do, 22.08. 14:00 1026 - 1,7
Do, 22.08. 8:00 1028 - 0,6
Do, 22.08. 2:00 1028 0,0
Ortszeit Luftdruck NN (hPa) Tendenz (hPa in 3 Std.)
Sa, 24.08. 0:00 1026 + 0,1
Fr, 23.08. 23:50 1026 keine Meldung
Fr, 23.08. 23:40 1026 keine Meldung
Fr, 23.08. 23:30 1026 + 0,4
Fr, 23.08. 23:20 1026 keine Meldung
Fr, 23.08. 23:10 1026 keine Meldung
Fr, 23.08. 23:00 1026 + 0,5
Fr, 23.08. 22:30 1026 + 0,5
Fr, 23.08. 22:00 1026 + 0,6
Fr, 23.08. 21:30 1026 + 0,5
Fr, 23.08. 21:00 1026 + 0,2
Ortszeit Schneehöhe (cm)
Fr, 23.08. 20:00 -
Fr, 23.08. 14:00 -
Fr, 23.08. 8:00 -
Fr, 23.08. 2:00 -
Do, 22.08. 20:00 -
Do, 22.08. 14:00 -
Do, 22.08. 8:00 -
Do, 22.08. 2:00 -
Ortszeit Schneehöhe (cm)
Sa, 24.08. 0:00 -
Fr, 23.08. 23:50 -
Fr, 23.08. 23:40 -
Fr, 23.08. 23:30 -
Fr, 23.08. 23:20 -
Fr, 23.08. 23:10 -
Fr, 23.08. 23:00 -
Fr, 23.08. 22:30 -
Fr, 23.08. 22:00 -
Fr, 23.08. 21:30 -
Fr, 23.08. 21:00 -
Link zu dieser Seite / Seite empfehlen

Das Wetter in ...